ENNM/OSY METAR and TAF weather

Enter ICAO airport designator
Station Type Date Time Source
ENNM METAR 2019/10/16 19:20 UTC NOAA

ENNM 161920Z 09017KT CAVOK 07/02 Q1010


Station Type Date Time Source
ENNM Decoded METAR 2019/10/16 19:20 UTC NOAA

Namsos Lufthavn, Norway (ENNM) 64-28N 011-35E 2M
Oct 16, 2019 - 03:20 PM EDT / 2019.10.16 1920 UTC
Wind: from the E (090 degrees) at 20 MPH (17 KT):0
Visibility: greater than 7 mile(s):0
Temperature: 44 F (7 C)
Dew Point: 35 F (2 C)
Relative Humidity: 70%
Pressure (altimeter): 29.83 in. Hg (1010 hPa)
ob: ENNM 161920Z 09017KT CAVOK 07/02 Q1010
cycle: 19

Station Type Date Time Source
ENNM TAF UTC NOAA

Error!

Example: see airport list